Valleyview, Ohio
Current Conditions -  °F | °C
As of 11:50 AM on Thursday 23 Oct 2014 (Local Time) from KTZR Reporting Station
Clear Clear  
Wind Chill: 52°   Ceiling: Unl
Heat Index: 52°   Visibility: 10mi
Dew Point: 43°   Wind: 8mph
Humidity: 71%   Direction: 330°NNW
Pressure: 30.25"   Gusts: NA
Location:  39.9614°N, 83.083°W
Report Text: KTZR 231550Z 33007KT 10SM SKC 11/06 A3025
Loading
Personal Weather Stations






























Interactive Weather Map
Tropical Storm Tracking
New forecast layout! Learn more

10-Day Weather Forecast

Advertisements
Track Severe Weather on mobile